MSC Gina — 3FLY9 — position and weather

sailwx.info

Track history (hours):
 
Tides and Currents Weather Stations Pressure Air Temp Water Temp Dewpoint Dewpoint Depression Visibility Wind Speed Wind Dir Waves Ship Positions

MSC Gina

Last reported at 2014-Nov-19 08:23 UTC. Time now 2014-Nov-23 03:36 UTC.
Position N 38°18' W 030°50'.

Length 259 m; draft 10.7 m.

Type: Ship (hazmat cat A). MMSI: 357542000.

Date/timePositionNaut miles runAvg speedWind from/ knotsBaromVisibWave heightAir tempDewpointWater temp
2014-Nov-19 08:23N 38°18' W 030°50'1214.3
2014-Nov-19 07:33N 38°13' W 030°37'1414.4
2014-Nov-19 06:33N 38°07' W 030°20'1414.3
2014-Nov-19 05:33N 38°00' W 030°04'1414.4
2014-Nov-19 04:33N 37°57' W 029°46'1414.2
2014-Nov-19 03:33N 37°52' W 029°29'1414.1
2014-Nov-19 02:33N 37°49' W 029°12'1413.9
2014-Nov-19 01:33N 37°45' W 028°55'1313.0
2014-Nov-19 00:33N 37°41' W 028°39'1313.1
2014-Nov-18 23:33N 37°37' W 028°23'1313.3
2014-Nov-18 22:34N 37°33' W 028°08'1313.2
2014-Nov-18 21:33N 37°29' W 027°52'1313.4
2014-Nov-18 20:33N 37°25' W 027°35'1413.6
2014-Nov-18 19:29N 37°21' W 027°18'1314.3
2014-Nov-18 18:34N 37°17' W 027°02'1514.5
2014-Nov-18 17:33N 37°13' W 026°44'1414.2
2014-Nov-18 16:34N 37°09' W 026°27'1514.5
2014-Nov-18 15:33N 37°05' W 026°10'1414.3
2014-Nov-18 14:34N 37°01' W 025°53'1414.1
2014-Nov-18 13:34N 36°57' W 025°36'1414.3
2014-Nov-18 12:33N 36°52' W 025°19'1414.1
2014-Nov-18 11:34N 36°49' W 025°02'1514.7
2014-Nov-18 10:34N 36°49' W 024°43'1515.4
2014-Nov-18 09:34N 36°50' W 024°24'1414.0
2014-Nov-18 08:34N 36°52' W 024°07'1313.5
2014-Nov-18 07:34N 36°53' W 023°50'1313.4
2014-Nov-18 06:34N 36°54' W 023°33'65617.5
2014-Nov-16 17:09N 37°51' W 009°51'1219.5
2014-Nov-16 16:33N 37°52' W 009°36'2019.6
2014-Nov-16 15:33N 37°53' W 009°11'1616.5
2014-Nov-16 14:33N 37°55' W 008°50'1 0.6
2014-Nov-16 13:33N 37°56' W 008°51'0 0.0
2014-Nov-16 12:33N 37°56' W 008°51'0 0.0
2014-Nov-16 11:33N 37°56' W 008°51'0 0.0
2014-Nov-16 10:33N 37°56' W 008°51'0 0.0
2014-Nov-16 09:33N 37°56' W 008°51'0 0.0
2014-Nov-16 08:30N 37°56' W 008°51'0 0.0
2014-Nov-16 07:33N 37°56' W 008°51'0 0.0
2014-Nov-16 06:33N 37°56' W 008°51'0 0.0
2014-Nov-16 05:33N 37°56' W 008°51'0 0.0
2014-Nov-16 04:33N 37°56' W 008°51'0 0.3
2014-Nov-16 03:33N 37°56' W 008°51'7 6.9
2014-Nov-16 02:33N 37°49' W 008°54'1919.3
2014-Nov-16 01:33N 37°32' W 009°06'5914.7
2014-Nov-15 21:34N 36°37' W 008°43'15719.6
2014-Nov-15 13:33N 35°58' W 005°34'1717.1
2014-Nov-15 12:33N 36°03' W 005°13'20718.7
2014-Nov-15 01:31N 37°09' W 001°09'2020.3
2014-Nov-15 00:33N 37°22' W 000°51'2020.5
2014-Nov-14 23:34N 37°36' W 000°32'2120.5
2014-Nov-14 22:33N 37°54' W 000°18'93 9.3
2014-Nov-14 12:32N 39°26' W 000°19'0 0.0
2014-Nov-14 11:32N 39°26' W 000°19'0 0.0
2014-Nov-14 10:32N 39°26' W 000°19'0 0.0
2014-Nov-14 09:32N 39°26' W 000°19'0 0.0
2014-Nov-14 08:32N 39°26' W 000°19'0 0.0
2014-Nov-14 07:20N 39°26' W 000°19'0 0.0
2014-Nov-14 06:29N 39°26' W 000°19'0 0.0
2014-Nov-14 05:17N 39°26' W 000°19'0 0.0
2014-Nov-14 04:32N 39°26' W 000°19'0 0.0
2014-Nov-14 03:32N 39°26' W 000°19'0 0.0
2014-Nov-14 02:29N 39°26' W 000°19'0 0.0
2014-Nov-14 01:32N 39°26' W 000°19'0 0.0
2014-Nov-14 00:32N 39°26' W 000°19'2 2.1
2014-Nov-13 23:33N 39°26' W 000°17'9 9.0
2014-Nov-13 22:33N 39°27' W 000°05'4714.6
2014-Nov-13 19:20N 39°43' E 000°52'1316.1
2014-Nov-13 18:33N 39°49' E 001°06'1616.5
2014-Nov-13 17:33N 39°58' E 001°23'1716.9
2014-Nov-13 16:33N 40°08' E 001°42'1716.7
2014-Nov-13 15:33N 40°17' E 002°00'1716.7
2014-Nov-13 14:33N 40°26' E 002°19'1918.6
2014-Nov-13 13:33N 40°36' E 002°40'1919.1
2014-Nov-13 12:33N 40°46' E 003°01'1918.9
2014-Nov-13 11:33N 40°56' E 003°22'2719.0
2014-Nov-13 10:09N 41°11' E 003°51'1218.4
2014-Nov-13 09:31N 41°18' E 004°04'2221.7
2014-Nov-13 08:29N 41°30' E 004°29'1616.3
2014-Nov-13 07:30N 41°38' E 004°47'19418.8
2014-Nov-12 21:12N 43°22' E 008°29'1218.6
2014-Nov-12 20:33N 43°29' E 008°43'1918.8
2014-Nov-12 19:33N 43°39' E 009°05'1919.2
2014-Nov-12 18:33N 43°49' E 009°27'1918.9
2014-Nov-12 17:33N 43°59' E 009°49'7 7.3
2014-Nov-12 16:33N 44°07' E 009°50'0 0.0
2014-Nov-12 15:33N 44°07' E 009°50'0 0.0
2014-Nov-12 14:33N 44°07' E 009°50'0 0.0
2014-Nov-12 13:33N 44°07' E 009°50'0 0.0
2014-Nov-12 12:33N 44°07' E 009°50'0 0.0
2014-Nov-12 11:33N 44°07' E 009°50'0 0.0
2014-Nov-12 10:33N 44°07' E 009°50'0 0.0
2014-Nov-12 09:33N 44°07' E 009°50'0 0.0
2014-Nov-12 08:33N 44°07' E 009°50'0 0.0
2014-Nov-12 07:33N 44°07' E 009°50'0 0.0
2014-Nov-12 06:33N 44°07' E 009°50'0 0.0
2014-Nov-12 05:33N 44°07' E 009°50'0 0.0
2014-Nov-12 04:33N 44°07' E 009°50'0 0.0
2014-Nov-12 03:33N 44°07' E 009°50'0 0.0
2014-Nov-12 02:33N 44°07' E 009°50'0 0.0
2014-Nov-12 01:33N 44°07' E 009°50'0 0.0
2014-Nov-12 00:33N 44°07' E 009°50'0 0.0
2014-Nov-11 23:33N 44°07' E 009°50'0 0.0
2014-Nov-11 22:33N 44°07' E 009°50'0 0.0
2014-Nov-11 21:33N 44°07' E 009°50'0 0.0
2014-Nov-11 20:33N 44°07' E 009°50'0 0.0
2014-Nov-11 19:33N 44°07' E 009°50'0 0.0
2014-Nov-11 18:33N 44°07' E 009°50'0 0.0
2014-Nov-11 17:33N 44°07' E 009°50'0 0.0
2014-Nov-11 16:33N 44°07' E 009°50'5 4.7
2014-Nov-11 15:33N 44°02' E 009°53'1 0.6
2014-Nov-11 14:33N 44°02' E 009°54'4 3.6
2014-Nov-11 13:33N 43°59' E 009°53'4 4.1
2014-Nov-11 12:32N 44°03' E 009°54'0 0.0
2014-Nov-11 11:32N 44°03' E 009°54'0 0.2
2014-Nov-11 10:32N 44°02' E 009°53'0 0.0
2014-Nov-11 09:32N 44°02' E 009°54'0 0.1
2014-Nov-11 08:32N 44°03' E 009°53'0 0.0
2014-Nov-11 07:32N 44°03' E 009°53'0 0.1
2014-Nov-11 06:32N 44°02' E 009°54'0 0.0
2014-Nov-11 05:32N 44°02' E 009°54'2 2.2
2014-Nov-11 04:33N 44°01' E 009°56'9 9.1
2014-Nov-11 03:33N 43°52' E 009°54'1313.1
2014-Nov-11 02:33N 43°40' E 009°47'1313.4
2014-Nov-11 01:33N 43°27' E 009°43'1313.4
2014-Nov-11 00:33N 43°14' E 009°41'1413.8
2014-Nov-10 23:33N 42°60' E 009°40'1414.2
2014-Nov-10 22:33N 42°46' E 009°45'1414.2
2014-Nov-10 21:33N 42°32' E 009°49'15513.6
2014-Nov-10 10:09N 40°45' E 012°18'7716.3
2014-Nov-10 05:26N 39°57' E 013°37'  
Track history (hours):
 
Tides and Currents Weather Stations Pressure Air Temp Water Temp Dewpoint Dewpoint Depression Visibility Wind Speed Wind Dir Waves Ship Positions

MSC Gina

Last reported at 2014-Nov-19 08:23 UTC. Time now 2014-Nov-23 03:36 UTC.
Position N 38°18' W 030°50'.

Length 259 m; draft 10.7 m.

Type: Ship (hazmat cat A). MMSI: 357542000.

Date/timePositionNaut miles runAvg speedWind from/ knotsBaromVisibWave heightAir tempDewpointWater temp
2014-Nov-19 08:23N 38°18' W 030°50'1214.3
2014-Nov-19 07:33N 38°13' W 030°37'1414.4
2014-Nov-19 06:33N 38°07' W 030°20'1414.3
2014-Nov-19 05:33N 38°00' W 030°04'1414.4
2014-Nov-19 04:33N 37°57' W 029°46'1414.2
2014-Nov-19 03:33N 37°52' W 029°29'1414.1
2014-Nov-19 02:33N 37°49' W 029°12'1413.9
2014-Nov-19 01:33N 37°45' W 028°55'1313.0
2014-Nov-19 00:33N 37°41' W 028°39'1313.1
2014-Nov-18 23:33N 37°37' W 028°23'1313.3
2014-Nov-18 22:34N 37°33' W 028°08'1313.2
2014-Nov-18 21:33N 37°29' W 027°52'1313.4
2014-Nov-18 20:33N 37°25' W 027°35'1413.6
2014-Nov-18 19:29N 37°21' W 027°18'1314.3
2014-Nov-18 18:34N 37°17' W 027°02'1514.5
2014-Nov-18 17:33N 37°13' W 026°44'1414.2
2014-Nov-18 16:34N 37°09' W 026°27'1514.5
2014-Nov-18 15:33N 37°05' W 026°10'1414.3
2014-Nov-18 14:34N 37°01' W 025°53'1414.1
2014-Nov-18 13:34N 36°57' W 025°36'1414.3
2014-Nov-18 12:33N 36°52' W 025°19'1414.1
2014-Nov-18 11:34N 36°49' W 025°02'1514.7
2014-Nov-18 10:34N 36°49' W 024°43'1515.4
2014-Nov-18 09:34N 36°50' W 024°24'1414.0
2014-Nov-18 08:34N 36°52' W 024°07'1313.5
2014-Nov-18 07:34N 36°53' W 023°50'1313.4
2014-Nov-18 06:34N 36°54' W 023°33'65617.5
2014-Nov-16 17:09N 37°51' W 009°51'1219.5
2014-Nov-16 16:33N 37°52' W 009°36'2019.6
2014-Nov-16 15:33N 37°53' W 009°11'1616.5
2014-Nov-16 14:33N 37°55' W 008°50'1 0.6
2014-Nov-16 13:33N 37°56' W 008°51'0 0.0
2014-Nov-16 12:33N 37°56' W 008°51'0 0.0
2014-Nov-16 11:33N 37°56' W 008°51'0 0.0
2014-Nov-16 10:33N 37°56' W 008°51'0 0.0
2014-Nov-16 09:33N 37°56' W 008°51'0 0.0
2014-Nov-16 08:30N 37°56' W 008°51'0 0.0
2014-Nov-16 07:33N 37°56' W 008°51'0 0.0
2014-Nov-16 06:33N 37°56' W 008°51'0 0.0
2014-Nov-16 05:33N 37°56' W 008°51'0 0.0
2014-Nov-16 04:33N 37°56' W 008°51'0 0.3
2014-Nov-16 03:33N 37°56' W 008°51'7 6.9
2014-Nov-16 02:33N 37°49' W 008°54'1919.3
2014-Nov-16 01:33N 37°32' W 009°06'5914.7
2014-Nov-15 21:34N 36°37' W 008°43'15719.6
2014-Nov-15 13:33N 35°58' W 005°34'1717.1
2014-Nov-15 12:33N 36°03' W 005°13'20718.7
2014-Nov-15 01:31N 37°09' W 001°09'2020.3
2014-Nov-15 00:33N 37°22' W 000°51'2020.5
2014-Nov-14 23:34N 37°36' W 000°32'2120.5
2014-Nov-14 22:33N 37°54' W 000°18'93 9.3
2014-Nov-14 12:32N 39°26' W 000°19'0 0.0
2014-Nov-14 11:32N 39°26' W 000°19'0 0.0
2014-Nov-14 10:32N 39°26' W 000°19'0 0.0
2014-Nov-14 09:32N 39°26' W 000°19'0 0.0
2014-Nov-14 08:32N 39°26' W 000°19'0 0.0
2014-Nov-14 07:20N 39°26' W 000°19'0 0.0
2014-Nov-14 06:29N 39°26' W 000°19'0 0.0
2014-Nov-14 05:17N 39°26' W 000°19'0 0.0
2014-Nov-14 04:32N 39°26' W 000°19'0 0.0
2014-Nov-14 03:32N 39°26' W 000°19'0 0.0
2014-Nov-14 02:29N 39°26' W 000°19'0 0.0
2014-Nov-14 01:32N 39°26' W 000°19'0 0.0
2014-Nov-14 00:32N 39°26' W 000°19'2 2.1
2014-Nov-13 23:33N 39°26' W 000°17'9 9.0
2014-Nov-13 22:33N 39°27' W 000°05'4714.6
2014-Nov-13 19:20N 39°43' E 000°52'1316.1
2014-Nov-13 18:33N 39°49' E 001°06'1616.5
2014-Nov-13 17:33N 39°58' E 001°23'1716.9
2014-Nov-13 16:33N 40°08' E 001°42'1716.7
2014-Nov-13 15:33N 40°17' E 002°00'1716.7
2014-Nov-13 14:33N 40°26' E 002°19'1918.6
2014-Nov-13 13:33N 40°36' E 002°40'1919.1
2014-Nov-13 12:33N 40°46' E 003°01'1918.9
2014-Nov-13 11:33N 40°56' E 003°22'2719.0
2014-Nov-13 10:09N 41°11' E 003°51'1218.4
2014-Nov-13 09:31N 41°18' E 004°04'2221.7
2014-Nov-13 08:29N 41°30' E 004°29'1616.3
2014-Nov-13 07:30N 41°38' E 004°47'19418.8
2014-Nov-12 21:12N 43°22' E 008°29'1218.6
2014-Nov-12 20:33N 43°29' E 008°43'1918.8
2014-Nov-12 19:33N 43°39' E 009°05'1919.2
2014-Nov-12 18:33N 43°49' E 009°27'1918.9
2014-Nov-12 17:33N 43°59' E 009°49'7 7.3
2014-Nov-12 16:33N 44°07' E 009°50'0 0.0
2014-Nov-12 15:33N 44°07' E 009°50'0 0.0
2014-Nov-12 14:33N 44°07' E 009°50'0 0.0
2014-Nov-12 13:33N 44°07' E 009°50'0 0.0
2014-Nov-12 12:33N 44°07' E 009°50'0 0.0
2014-Nov-12 11:33N 44°07' E 009°50'0 0.0
2014-Nov-12 10:33N 44°07' E 009°50'0 0.0
2014-Nov-12 09:33N 44°07' E 009°50'0 0.0
2014-Nov-12 08:33N 44°07' E 009°50'0 0.0
2014-Nov-12 07:33N 44°07' E 009°50'0 0.0
2014-Nov-12 06:33N 44°07' E 009°50'0 0.0
2014-Nov-12 05:33N 44°07' E 009°50'0 0.0
2014-Nov-12 04:33N 44°07' E 009°50'0 0.0
2014-Nov-12 03:33N 44°07' E 009°50'0 0.0
2014-Nov-12 02:33N 44°07' E 009°50'0 0.0
2014-Nov-12 01:33N 44°07' E 009°50'0 0.0
2014-Nov-12 00:33N 44°07' E 009°50'0 0.0
2014-Nov-11 23:33N 44°07' E 009°50'0 0.0
2014-Nov-11 22:33N 44°07' E 009°50'0 0.0
2014-Nov-11 21:33N 44°07' E 009°50'0 0.0
2014-Nov-11 20:33N 44°07' E 009°50'0 0.0
2014-Nov-11 19:33N 44°07' E 009°50'0 0.0
2014-Nov-11 18:33N 44°07' E 009°50'0 0.0
2014-Nov-11 17:33N 44°07' E 009°50'0 0.0
2014-Nov-11 16:33N 44°07' E 009°50'5 4.7
2014-Nov-11 15:33N 44°02' E 009°53'1 0.6
2014-Nov-11 14:33N 44°02' E 009°54'4 3.6
2014-Nov-11 13:33N 43°59' E 009°53'4 4.1
2014-Nov-11 12:32N 44°03' E 009°54'0 0.0
2014-Nov-11 11:32N 44°03' E 009°54'0 0.2
2014-Nov-11 10:32N 44°02' E 009°53'0 0.0
2014-Nov-11 09:32N 44°02' E 009°54'0 0.1
2014-Nov-11 08:32N 44°03' E 009°53'0 0.0
2014-Nov-11 07:32N 44°03' E 009°53'0 0.1
2014-Nov-11 06:32N 44°02' E 009°54'0 0.0
2014-Nov-11 05:32N 44°02' E 009°54'2 2.2
2014-Nov-11 04:33N 44°01' E 009°56'9 9.1
2014-Nov-11 03:33N 43°52' E 009°54'1313.1
2014-Nov-11 02:33N 43°40' E 009°47'1313.4
2014-Nov-11 01:33N 43°27' E 009°43'1313.4
2014-Nov-11 00:33N 43°14' E 009°41'1413.8
2014-Nov-10 23:33N 42°60' E 009°40'1414.2
2014-Nov-10 22:33N 42°46' E 009°45'1414.2
2014-Nov-10 21:33N 42°32' E 009°49'15513.6
2014-Nov-10 10:09N 40°45' E 012°18'7716.3
2014-Nov-10 05:26N 39°57' E 013°37'  

Dump ship's entire track history